»·PEaware :: N2355E KBFL-KMHV

N2355E :: KBFL-KMHV

FLIGHT INFORMATION

Flight Status: Arrived
Operator: Privately registered:
United States
More flights under this callsign
Pilot: Chris T. (38062)
Aircraft: CESSNA 172 SKYHAWK
(C172)
More flights by this aircraft type
Origin: KBFL Meadows
United States
Destination: KMHV Mojave
United States
More flights between these airports :: More routes between these airports
Route: CL74
File this flight plan on PilotEdge
Remarks:
Altitude:
(Current/Filed)
9,500ft
Speed:
(Current/Filed)
110kts
Departed: 10-Nov-23 07:25 PM
Arrived: 10-Nov-23 08:17 PM
Distance/Time
Traveled:
50nm/0:52
Distance/Time
To Go:
Arrived

Flight Plot

Page will automatically refresh every two minutes.

Flight plan parsing failed; only flown route is shown


Map Options




Map Legend


Flown Route
Filed Route
Departure Airport
Arrival Airport
Navaid (VOR, NDB)
Fix

Horizontal Profiles

Position Reports

Time Latitude Longitude Heading Altitude Ground
Speed
10-Nov-23 19:11 35.430322 -119.048053 139 485ft 0kts
10-Nov-23 19:12 35.430322 -119.048053 139 485ft 0kts
10-Nov-23 19:13 35.430322 -119.048053 139 485ft 0kts
10-Nov-23 19:14 35.430322 -119.048053 139 485ft 0kts
10-Nov-23 19:15 35.430322 -119.048053 139 485ft 0kts
10-Nov-23 19:16 35.430322 -119.048053 139 485ft 0kts
10-Nov-23 19:17 35.430322 -119.048053 139 485ft 0kts
10-Nov-23 19:18 35.430322 -119.048053 139 485ft 0kts
10-Nov-23 19:19 35.430322 -119.048053 139 485ft 0kts
10-Nov-23 19:20 35.430322 -119.048053 139 485ft 0kts
10-Nov-23 19:21 35.428790 -119.046778 220 480ft 13kts
10-Nov-23 19:22 35.425805 -119.044695 226 471ft 0kts
10-Nov-23 19:23 35.425689 -119.044843 229 472ft 9kts
10-Nov-23 19:24 35.434606 -119.057384 324 621ft 91kts
10-Nov-23 19:25 35.448101 -119.054290 113 1467ft 79kts
10-Nov-23 19:26 35.430436 -119.032682 136 2150ft 86kts
10-Nov-23 19:27 35.413788 -119.013310 136 2854ft 81kts
10-Nov-23 19:28 35.397361 -118.993931 136 3463ft 82kts
10-Nov-23 19:29 35.380609 -118.974063 132 4011ft 84kts
10-Nov-23 19:30 35.364813 -118.952353 136 4539ft 86kts
10-Nov-23 19:31 35.346889 -118.932197 136 5048ft 87kts
10-Nov-23 19:32 35.328630 -118.911843 136 5507ft 89kts
10-Nov-23 19:33 35.310046 -118.891280 136 5942ft 90kts
10-Nov-23 19:34 35.291080 -118.870539 136 6367ft 92kts
10-Nov-23 19:35 35.271789 -118.849705 136 6723ft 93kts
10-Nov-23 19:36 35.252198 -118.828576 136 7024ft 93kts
10-Nov-23 19:37 35.232576 -118.807334 136 7291ft 94kts
10-Nov-23 19:38 35.212754 -118.785952 136 7531ft 95kts
10-Nov-23 19:39 35.192899 -118.764541 136 7748ft 95kts
10-Nov-23 19:40 35.172984 -118.743122 136 7981ft 95kts
10-Nov-23 19:41 35.152754 -118.721542 136 8173ft 96kts
10-Nov-23 19:42 35.132671 -118.699987 136 8277ft 96kts
10-Nov-23 19:43 35.112601 -118.678490 136 8359ft 96kts
10-Nov-23 19:44 35.092473 -118.656982 136 8469ft 96kts
10-Nov-23 19:45 35.072299 -118.635281 136 8590ft 95kts
10-Nov-23 19:46 35.052848 -118.614361 136 8754ft 92kts
10-Nov-23 19:47 35.034230 -118.594544 136 8884ft 85kts
10-Nov-23 19:48 35.016205 -118.575468 136 8838ft 85kts
10-Nov-23 19:49 34.998641 -118.557094 136 8898ft 82kts
10-Nov-23 19:50 34.981355 -118.539074 136 8540ft 114kts
10-Nov-23 19:51 34.956803 -118.512528 131 8522ft 103kts
10-Nov-23 19:52 34.938083 -118.488772 135 8652ft 92kts
10-Nov-23 19:53 34.916765 -118.463504 140 8094ft 125kts
10-Nov-23 19:54 34.891988 -118.438192 136 7780ft 102kts
10-Nov-23 19:55 34.869723 -118.414802 136 7698ft 117kts
10-Nov-23 19:56 34.847343 -118.385326 77 7511ft 120kts
10-Nov-23 19:57 34.867098 -118.362137 36 7491ft 85kts
10-Nov-23 19:58 34.885733 -118.342613 39 7064ft 87kts
10-Nov-23 19:59 34.904408 -118.321406 41 6565ft 94kts
10-Nov-23 20:00 34.921685 -118.299729 69 6222ft 74kts
10-Nov-23 20:01 34.941628 -118.279080 40 5472ft 100kts
10-Nov-23 20:02 34.961356 -118.257343 43 5040ft 96kts
10-Nov-23 20:03 34.979911 -118.235055 43 4605ft 97kts
10-Nov-23 20:04 34.997488 -118.210547 49 4083ft 95kts
10-Nov-23 20:05 35.014485 -118.187267 47 4028ft 88kts
10-Nov-23 20:06 35.030015 -118.163003 58 3880ft 95kts
10-Nov-23 20:07 35.046540 -118.140842 20 3200ft 96kts
10-Nov-23 20:08 35.065692 -118.156646 314 3329ft 87kts
10-Nov-23 20:09 35.082719 -118.160993 66 3939ft 90kts
10-Nov-23 20:10 35.068909 -118.131408 132 4055ft 119kts
10-Nov-23 20:11 35.058859 -118.147199 289 2818ft 68kts
10-Nov-23 20:12 35.073037 -118.163365 347 3263ft 66kts
10-Nov-23 20:13 35.072386 -118.144244 138 3500ft 112kts
10-Nov-23 20:14 35.051238 -118.117387 179 3480ft 94kts
10-Nov-23 20:15 35.050630 -118.137937 312 2722ft 43kts
10-Nov-23 20:16 35.055770 -118.144165 316 2740ft 32kts
10-Nov-23 20:18 35.057732 -118.149841 263 2753ft 9kts
10-Nov-23 20:19 35.057298 -118.153033 182 2759ft 0kts

Navigation Log

Ident Type
Flight plan parsing failed, navigation log unavailable